sensor_id;sensor_type;location;lat;lon;timestamp;P1;durP1;ratioP1;P2;durP2;ratioP2
79204;SDS011;68632;47.512;19.104;2023-04-06T00:00:03;13.27;;;7.97;;
79204;SDS011;68632;47.512;19.104;2023-04-06T00:01:07;12.10;;;8.15;;
79204;SDS011;68632;47.512;19.104;2023-04-06T00:02:09;10.70;;;8.18;;
79204;SDS011;68632;47.512;19.104;2023-04-06T00:03:12;14.88;;;7.68;;
79204;SDS011;68632;47.512;19.104;2023-04-06T00:04:14;12.07;;;7.88;;
79204;SDS011;68632;47.512;19.104;2023-04-06T00:05:16;12.45;;;8.38;;
79204;SDS011;68632;47.512;19.104;2023-04-06T00:06:19;15.60;;;10.00;;
79204;SDS011;68632;47.512;19.104;2023-04-06T00:07:21;14.20;;;8.35;;
79204;SDS011;68632;47.512;19.104;2023-04-06T00:08:24;12.45;;;8.55;;
79204;SDS011;68632;47.512;19.104;2023-04-06T00:09:27;13.27;;;8.93;;
79204;SDS011;68632;47.512;19.104;2023-04-06T00:10:29;12.25;;;8.30;;
79204;SDS011;68632;47.512;19.104;2023-04-06T00:11:31;11.18;;;7.57;;
79204;SDS011;68632;47.512;19.104;2023-04-06T00:12:33;11.43;;;8.00;;
79204;SDS011;68632;47.512;19.104;2023-04-06T00:13:35;14.88;;;9.23;;
79204;SDS011;68632;47.512;19.104;2023-04-06T00:14:38;13.13;;;7.75;;
79204;SDS011;68632;47.512;19.104;2023-04-06T00:15:40;11.30;;;7.95;;
79204;SDS011;68632;47.512;19.104;2023-04-06T00:16:42;13.90;;;8.57;;
79204;SDS011;68632;47.512;19.104;2023-04-06T00:17:44;15.60;;;9.82;;
79204;SDS011;68632;47.512;19.104;2023-04-06T00:18:46;17.80;;;9.45;;
79204;SDS011;68632;47.512;19.104;2023-04-06T00:19:48;12.05;;;8.15;;
79204;SDS011;68632;47.512;19.104;2023-04-06T00:20:51;11.05;;;7.82;;
79204;SDS011;68632;47.512;19.104;2023-04-06T00:21:53;14.02;;;9.07;;
79204;SDS011;68632;47.512;19.104;2023-04-06T00:22:55;10.90;;;8.00;;
79204;SDS011;68632;47.512;19.104;2023-04-06T00:23:57;13.85;;;8.68;;
79204;SDS011;68632;47.512;19.104;2023-04-06T00:24:59;11.88;;;8.80;;
79204;SDS011;68632;47.512;19.104;2023-04-06T00:26:01;14.50;;;8.18;;
79204;SDS011;68632;47.512;19.104;2023-04-06T00:27:04;11.82;;;7.80;;
79204;SDS011;68632;47.512;19.104;2023-04-06T00:28:06;11.85;;;7.47;;
79204;SDS011;68632;47.512;19.104;2023-04-06T00:29:08;13.77;;;8.95;;
79204;SDS011;68632;47.512;19.104;2023-04-06T00:30:11;15.35;;;8.07;;
79204;SDS011;68632;47.512;19.104;2023-04-06T00:31:13;15.27;;;10.13;;
79204;SDS011;68632;47.512;19.104;2023-04-06T00:32:15;11.82;;;7.85;;
79204;SDS011;68632;47.512;19.104;2023-04-06T00:33:18;13.70;;;9.75;;
79204;SDS011;68632;47.512;19.104;2023-04-06T00:34:21;12.07;;;8.07;;
79204;SDS011;68632;47.512;19.104;2023-04-06T00:35:23;14.27;;;9.35;;
79204;SDS011;68632;47.512;19.104;2023-04-06T00:36:25;13.63;;;8.48;;
79204;SDS011;68632;47.512;19.104;2023-04-06T00:37:28;12.05;;;8.25;;
79204;SDS011;68632;47.512;19.104;2023-04-06T00:38:30;11.85;;;7.47;;
79204;SDS011;68632;47.512;19.104;2023-04-06T00:39:32;17.00;;;8.52;;
79204;SDS011;68632;47.512;19.104;2023-04-06T00:40:34;16.88;;;9.65;;
79204;SDS011;68632;47.512;19.104;2023-04-06T00:41:37;13.85;;;8.60;;
79204;SDS011;68632;47.512;19.104;2023-04-06T00:42:40;11.48;;;8.40;;
79204;SDS011;68632;47.512;19.104;2023-04-06T00:43:42;14.52;;;9.27;;
79204;SDS011;68632;47.512;19.104;2023-04-06T00:44:45;18.23;;;8.85;;
79204;SDS011;68632;47.512;19.104;2023-04-06T00:45:47;12.30;;;8.52;;
79204;SDS011;68632;47.512;19.104;2023-04-06T00:46:49;14.13;;;9.55;;
79204;SDS011;68632;47.512;19.104;2023-04-06T00:47:51;15.48;;;8.65;;
79204;SDS011;68632;47.512;19.104;2023-04-06T00:48:54;13.25;;;8.93;;
79204;SDS011;68632;47.512;19.104;2023-04-06T00:49:56;15.82;;;9.20;;
79204;SDS011;68632;47.512;19.104;2023-04-06T00:50:58;12.75;;;9.55;;
79204;SDS011;68632;47.512;19.104;2023-04-06T00:52:01;15.48;;;9.45;;
79204;SDS011;68632;47.512;19.104;2023-04-06T00:53:03;13.98;;;9.05;;
79204;SDS011;68632;47.512;19.104;2023-04-06T00:54:05;15.77;;;8.85;;
79204;SDS011;68632;47.512;19.104;2023-04-06T00:55:07;14.75;;;10.57;;
79204;SDS011;68632;47.512;19.104;2023-04-06T00:56:09;13.95;;;8.77;;
79204;SDS011;68632;47.512;19.104;2023-04-06T00:57:12;16.05;;;10.10;;
79204;SDS011;68632;47.512;19.104;2023-04-06T00:58:14;13.15;;;9.70;;
79204;SDS011;68632;47.512;19.104;2023-04-06T00:59:16;13.77;;;9.38;;
79204;SDS011;68632;47.512;19.104;2023-04-06T01:00:19;12.77;;;9.38;;
79204;SDS011;68632;47.512;19.104;2023-04-06T01:01:21;15.95;;;9.77;;
79204;SDS011;68632;47.512;19.104;2023-04-06T01:02:23;16.50;;;10.48;;
79204;SDS011;68632;47.512;19.104;2023-04-06T01:03:27;14.65;;;9.45;;
79204;SDS011;68632;47.512;19.104;2023-04-06T01:04:29;13.02;;;9.20;;
79204;SDS011;68632;47.512;19.104;2023-04-06T01:05:33;14.90;;;9.73;;
79204;SDS011;68632;47.512;19.104;2023-04-06T01:06:36;14.88;;;10.93;;
79204;SDS011;68632;47.512;19.104;2023-04-06T01:07:38;17.27;;;11.25;;
79204;SDS011;68632;47.512;19.104;2023-04-06T01:08:41;16.30;;;10.00;;
79204;SDS011;68632;47.512;19.104;2023-04-06T01:09:43;13.70;;;9.05;;
79204;SDS011;68632;47.512;19.104;2023-04-06T01:10:45;14.63;;;10.15;;
79204;SDS011;68632;47.512;19.104;2023-04-06T01:11:47;19.48;;;10.38;;
79204;SDS011;68632;47.512;19.104;2023-04-06T01:12:49;16.65;;;11.38;;
79204;SDS011;68632;47.512;19.104;2023-04-06T01:13:52;14.52;;;10.40;;
79204;SDS011;68632;47.512;19.104;2023-04-06T01:14:54;21.50;;;11.35;;
79204;SDS011;68632;47.512;19.104;2023-04-06T01:15:56;17.08;;;10.70;;
79204;SDS011;68632;47.512;19.104;2023-04-06T01:16:59;17.23;;;10.80;;
79204;SDS011;68632;47.512;19.104;2023-04-06T01:18:04;15.90;;;9.77;;
79204;SDS011;68632;47.512;19.104;2023-04-06T01:19:09;13.68;;;10.43;;
79204;SDS011;68632;47.512;19.104;2023-04-06T01:20:12;17.80;;;11.88;;
79204;SDS011;68632;47.512;19.104;2023-04-06T01:21:14;15.48;;;10.13;;
79204;SDS011;68632;47.512;19.104;2023-04-06T01:22:17;18.35;;;11.88;;
79204;SDS011;68632;47.512;19.104;2023-04-06T01:23:20;18.48;;;11.05;;
79204;SDS011;68632;47.512;19.104;2023-04-06T01:24:22;19.38;;;10.43;;
79204;SDS011;68632;47.512;19.104;2023-04-06T01:25:24;15.77;;;10.13;;
79204;SDS011;68632;47.512;19.104;2023-04-06T01:26:27;18.17;;;11.20;;
79204;SDS011;68632;47.512;19.104;2023-04-06T01:27:31;16.05;;;11.00;;
79204;SDS011;68632;47.512;19.104;2023-04-06T01:28:33;19.20;;;11.35;;
79204;SDS011;68632;47.512;19.104;2023-04-06T01:29:35;18.20;;;11.93;;
79204;SDS011;68632;47.512;19.104;2023-04-06T01:30:37;17.10;;;12.07;;
79204;SDS011;68632;47.512;19.104;2023-04-06T01:31:39;18.08;;;10.20;;
79204;SDS011;68632;47.512;19.104;2023-04-06T01:32:41;17.45;;;12.13;;
79204;SDS011;68632;47.512;19.104;2023-04-06T01:33:44;16.80;;;11.98;;
79204;SDS011;68632;47.512;19.104;2023-04-06T01:34:47;17.58;;;10.98;;
79204;SDS011;68632;47.512;19.104;2023-04-06T01:35:49;16.60;;;11.27;;
79204;SDS011;68632;47.512;19.104;2023-04-06T01:36:51;22.52;;;12.77;;
79204;SDS011;68632;47.512;19.104;2023-04-06T01:37:53;18.50;;;11.38;;
79204;SDS011;68632;47.512;19.104;2023-04-06T01:38:55;17.88;;;11.35;;
79204;SDS011;68632;47.512;19.104;2023-04-06T01:39:57;22.50;;;12.98;;
79204;SDS011;68632;47.512;19.104;2023-04-06T01:41:00;18.88;;;11.82;;
79204;SDS011;68632;47.512;19.104;2023-04-06T01:42:02;17.08;;;11.95;;
79204;SDS011;68632;47.512;19.104;2023-04-06T01:43:04;18.23;;;11.07;;
79204;SDS011;68632;47.512;19.104;2023-04-06T01:44:07;18.90;;;12.43;;
79204;SDS011;68632;47.512;19.104;2023-04-06T01:45:09;15.35;;;11.52;;
79204;SDS011;68632;47.512;19.104;2023-04-06T01:46:11;18.63;;;11.43;;
79204;SDS011;68632;47.512;19.104;2023-04-06T01:47:14;19.35;;;12.68;;
79204;SDS011;68632;47.512;19.104;2023-04-06T01:48:16;17.92;;;12.20;;
79204;SDS011;68632;47.512;19.104;2023-04-06T01:49:18;18.08;;;10.63;;
79204;SDS011;68632;47.512;19.104;2023-04-06T01:50:20;21.13;;;13.13;;
79204;SDS011;68632;47.512;19.104;2023-04-06T01:51:22;17.58;;;12.50;;
79204;SDS011;68632;47.512;19.104;2023-04-06T01:52:26;18.83;;;12.85;;
79204;SDS011;68632;47.512;19.104;2023-04-06T01:53:28;21.15;;;12.73;;
79204;SDS011;68632;47.512;19.104;2023-04-06T01:54:30;21.42;;;12.60;;
79204;SDS011;68632;47.512;19.104;2023-04-06T01:55:32;18.50;;;11.63;;
79204;SDS011;68632;47.512;19.104;2023-04-06T01:56:34;18.17;;;13.60;;
79204;SDS011;68632;47.512;19.104;2023-04-06T01:57:37;23.67;;;13.75;;
79204;SDS011;68632;47.512;19.104;2023-04-06T01:58:39;16.02;;;11.40;;
79204;SDS011;68632;47.512;19.104;2023-04-06T01:59:41;19.83;;;11.98;;
79204;SDS011;68632;47.512;19.104;2023-04-06T02:00:43;19.40;;;12.23;;
79204;SDS011;68632;47.512;19.104;2023-04-06T02:01:45;19.30;;;12.10;;
79204;SDS011;68632;47.512;19.104;2023-04-06T02:02:48;18.45;;;12.63;;
79204;SDS011;68632;47.512;19.104;2023-04-06T02:03:50;17.73;;;11.52;;
79204;SDS011;68632;47.512;19.104;2023-04-06T02:04:52;18.80;;;11.52;;
79204;SDS011;68632;47.512;19.104;2023-04-06T02:05:54;20.75;;;13.02;;
79204;SDS011;68632;47.512;19.104;2023-04-06T02:06:56;19.52;;;12.13;;
79204;SDS011;68632;47.512;19.104;2023-04-06T02:07:58;22.13;;;12.35;;
79204;SDS011;68632;47.512;19.104;2023-04-06T02:09:01;20.08;;;12.40;;
79204;SDS011;68632;47.512;19.104;2023-04-06T02:10:03;19.67;;;11.85;;
79204;SDS011;68632;47.512;19.104;2023-04-06T02:11:06;19.38;;;13.45;;
79204;SDS011;68632;47.512;19.104;2023-04-06T02:12:08;20.02;;;13.05;;
79204;SDS011;68632;47.512;19.104;2023-04-06T02:13:10;21.65;;;12.38;;
79204;SDS011;68632;47.512;19.104;2023-04-06T02:14:12;21.70;;;12.15;;
79204;SDS011;68632;47.512;19.104;2023-04-06T02:15:14;19.13;;;11.48;;
79204;SDS011;68632;47.512;19.104;2023-04-06T02:16:17;17.33;;;11.95;;
79204;SDS011;68632;47.512;19.104;2023-04-06T02:17:19;21.45;;;14.38;;
79204;SDS011;68632;47.512;19.104;2023-04-06T02:18:21;20.35;;;11.68;;
79204;SDS011;68632;47.512;19.104;2023-04-06T02:19:24;18.75;;;12.23;;
79204;SDS011;68632;47.512;19.104;2023-04-06T02:20:26;17.33;;;12.05;;
79204;SDS011;68632;47.512;19.104;2023-04-06T02:21:28;16.23;;;10.80;;
79204;SDS011;68632;47.512;19.104;2023-04-06T02:22:30;20.13;;;11.95;;
79204;SDS011;68632;47.512;19.104;2023-04-06T02:23:33;15.85;;;10.85;;
79204;SDS011;68632;47.512;19.104;2023-04-06T02:24:35;17.50;;;11.45;;
79204;SDS011;68632;47.512;19.104;2023-04-06T02:25:37;18.55;;;11.73;;
79204;SDS011;68632;47.512;19.104;2023-04-06T02:26:39;17.23;;;12.02;;
79204;SDS011;68632;47.512;19.104;2023-04-06T02:27:41;22.52;;;12.20;;
79204;SDS011;68632;47.512;19.104;2023-04-06T02:28:44;20.75;;;12.88;;
79204;SDS011;68632;47.512;19.104;2023-04-06T02:29:46;17.88;;;11.82;;
79204;SDS011;68632;47.512;19.104;2023-04-06T02:30:48;23.75;;;11.63;;
79204;SDS011;68632;47.512;19.104;2023-04-06T02:31:50;17.70;;;11.60;;
79204;SDS011;68632;47.512;19.104;2023-04-06T02:32:52;17.58;;;12.10;;
79204;SDS011;68632;47.512;19.104;2023-04-06T02:33:54;20.90;;;12.82;;
79204;SDS011;68632;47.512;19.104;2023-04-06T02:34:57;22.33;;;12.02;;
79204;SDS011;68632;47.512;19.104;2023-04-06T02:35:59;17.42;;;12.35;;
79204;SDS011;68632;47.512;19.104;2023-04-06T02:37:01;19.10;;;11.95;;
79204;SDS011;68632;47.512;19.104;2023-04-06T02:38:03;23.33;;;12.38;;
79204;SDS011;68632;47.512;19.104;2023-04-06T02:39:05;17.40;;;12.10;;
79204;SDS011;68632;47.512;19.104;2023-04-06T02:40:08;17.45;;;11.80;;
79204;SDS011;68632;47.512;19.104;2023-04-06T02:41:11;18.27;;;12.48;;
79204;SDS011;68632;47.512;19.104;2023-04-06T02:42:13;19.50;;;12.00;;
79204;SDS011;68632;47.512;19.104;2023-04-06T02:43:17;16.13;;;11.50;;
79204;SDS011;68632;47.512;19.104;2023-04-06T02:44:19;17.95;;;11.40;;
79204;SDS011;68632;47.512;19.104;2023-04-06T02:45:21;21.10;;;12.65;;
79204;SDS011;68632;47.512;19.104;2023-04-06T02:46:23;18.10;;;12.50;;
79204;SDS011;68632;47.512;19.104;2023-04-06T02:47:26;20.17;;;12.43;;
79204;SDS011;68632;47.512;19.104;2023-04-06T02:48:28;19.70;;;12.43;;
79204;SDS011;68632;47.512;19.104;2023-04-06T02:49:30;17.55;;;12.35;;
79204;SDS011;68632;47.512;19.104;2023-04-06T02:50:32;18.25;;;12.13;;
79204;SDS011;68632;47.512;19.104;2023-04-06T02:51:34;20.75;;;12.35;;
79204;SDS011;68632;47.512;19.104;2023-04-06T02:52:36;19.27;;;12.70;;
79204;SDS011;68632;47.512;19.104;2023-04-06T02:53:39;18.75;;;11.85;;
79204;SDS011;68632;47.512;19.104;2023-04-06T02:54:41;18.60;;;11.35;;
79204;SDS011;68632;47.512;19.104;2023-04-06T02:55:43;17.90;;;11.50;;
79204;SDS011;68632;47.512;19.104;2023-04-06T02:56:45;18.20;;;12.18;;
79204;SDS011;68632;47.512;19.104;2023-04-06T02:57:47;17.05;;;12.10;;
79204;SDS011;68632;47.512;19.104;2023-04-06T02:58:49;20.38;;;12.70;;
79204;SDS011;68632;47.512;19.104;2023-04-06T02:59:52;18.15;;;12.18;;
79204;SDS011;68632;47.512;19.104;2023-04-06T03:00:54;20.50;;;12.68;;
79204;SDS011;68632;47.512;19.104;2023-04-06T03:01:56;23.90;;;13.20;;
79204;SDS011;68632;47.512;19.104;2023-04-06T03:02:58;19.05;;;12.35;;
79204;SDS011;68632;47.512;19.104;2023-04-06T03:04:00;16.65;;;11.85;;
79204;SDS011;68632;47.512;19.104;2023-04-06T03:05:02;17.90;;;12.68;;
79204;SDS011;68632;47.512;19.104;2023-04-06T03:06:05;22.52;;;12.75;;
79204;SDS011;68632;47.512;19.104;2023-04-06T03:07:07;22.20;;;13.27;;
79204;SDS011;68632;47.512;19.104;2023-04-06T03:08:09;21.85;;;12.73;;
79204;SDS011;68632;47.512;19.104;2023-04-06T03:09:12;19.77;;;13.15;;
79204;SDS011;68632;47.512;19.104;2023-04-06T03:10:15;20.80;;;14.27;;
79204;SDS011;68632;47.512;19.104;2023-04-06T03:11:18;18.17;;;12.60;;
79204;SDS011;68632;47.512;19.104;2023-04-06T03:12:20;21.80;;;13.85;;
79204;SDS011;68632;47.512;19.104;2023-04-06T03:13:22;19.55;;;11.80;;
79204;SDS011;68632;47.512;19.104;2023-04-06T03:14:24;18.98;;;12.80;;
79204;SDS011;68632;47.512;19.104;2023-04-06T03:15:26;21.02;;;14.00;;
79204;SDS011;68632;47.512;19.104;2023-04-06T03:16:29;20.25;;;13.40;;
79204;SDS011;68632;47.512;19.104;2023-04-06T03:17:31;21.52;;;14.55;;
79204;SDS011;68632;47.512;19.104;2023-04-06T03:18:33;24.10;;;13.30;;
79204;SDS011;68632;47.512;19.104;2023-04-06T03:19:35;20.10;;;13.13;;
79204;SDS011;68632;47.512;19.104;2023-04-06T03:20:37;21.15;;;13.02;;
79204;SDS011;68632;47.512;19.104;2023-04-06T03:21:39;21.35;;;13.40;;
79204;SDS011;68632;47.512;19.104;2023-04-06T03:22:41;20.35;;;12.40;;
79204;SDS011;68632;47.512;19.104;2023-04-06T03:23:43;23.48;;;15.35;;
79204;SDS011;68632;47.512;19.104;2023-04-06T03:24:46;21.40;;;13.55;;
79204;SDS011;68632;47.512;19.104;2023-04-06T03:25:48;19.38;;;12.93;;
79204;SDS011;68632;47.512;19.104;2023-04-06T03:26:50;25.65;;;14.90;;
79204;SDS011;68632;47.512;19.104;2023-04-06T03:27:52;20.80;;;12.15;;
79204;SDS011;68632;47.512;19.104;2023-04-06T03:28:54;21.00;;;12.77;;
79204;SDS011;68632;47.512;19.104;2023-04-06T03:29:57;19.15;;;14.25;;
79204;SDS011;68632;47.512;19.104;2023-04-06T03:30:59;24.20;;;14.30;;
79204;SDS011;68632;47.512;19.104;2023-04-06T03:32:01;19.50;;;14.00;;
79204;SDS011;68632;47.512;19.104;2023-04-06T03:33:03;21.95;;;13.27;;
79204;SDS011;68632;47.512;19.104;2023-04-06T03:34:06;25.65;;;14.10;;
79204;SDS011;68632;47.512;19.104;2023-04-06T03:35:08;20.08;;;13.93;;
79204;SDS011;68632;47.512;19.104;2023-04-06T03:36:10;20.15;;;12.88;;
79204;SDS011;68632;47.512;19.104;2023-04-06T03:37:12;18.17;;;13.02;;
79204;SDS011;68632;47.512;19.104;2023-04-06T03:38:15;21.17;;;13.98;;
79204;SDS011;68632;47.512;19.104;2023-04-06T03:39:17;26.50;;;14.98;;
79204;SDS011;68632;47.512;19.104;2023-04-06T03:40:19;21.33;;;14.05;;
79204;SDS011;68632;47.512;19.104;2023-04-06T03:41:21;22.95;;;14.95;;
79204;SDS011;68632;47.512;19.104;2023-04-06T03:42:24;28.33;;;14.18;;
79204;SDS011;68632;47.512;19.104;2023-04-06T03:43:26;24.42;;;14.57;;
79204;SDS011;68632;47.512;19.104;2023-04-06T03:44:28;23.45;;;13.45;;
79204;SDS011;68632;47.512;19.104;2023-04-06T03:45:30;19.50;;;12.85;;
79204;SDS011;68632;47.512;19.104;2023-04-06T03:46:32;27.05;;;15.90;;
79204;SDS011;68632;47.512;19.104;2023-04-06T03:47:35;23.38;;;14.98;;
79204;SDS011;68632;47.512;19.104;2023-04-06T03:48:37;24.08;;;14.38;;
79204;SDS011;68632;47.512;19.104;2023-04-06T03:49:39;25.58;;;14.05;;
79204;SDS011;68632;47.512;19.104;2023-04-06T03:50:41;19.95;;;14.63;;
79204;SDS011;68632;47.512;19.104;2023-04-06T03:51:43;23.75;;;15.27;;
79204;SDS011;68632;47.512;19.104;2023-04-06T03:52:46;23.63;;;13.80;;
79204;SDS011;68632;47.512;19.104;2023-04-06T03:53:48;25.88;;;14.88;;
79204;SDS011;68632;47.512;19.104;2023-04-06T03:54:50;25.67;;;15.50;;
79204;SDS011;68632;47.512;19.104;2023-04-06T03:55:52;22.52;;;14.00;;
79204;SDS011;68632;47.512;19.104;2023-04-06T03:56:54;23.30;;;13.95;;
79204;SDS011;68632;47.512;19.104;2023-04-06T03:57:57;22.38;;;14.85;;
79204;SDS011;68632;47.512;19.104;2023-04-06T03:58:59;28.58;;;15.27;;
79204;SDS011;68632;47.512;19.104;2023-04-06T04:00:01;21.55;;;13.90;;
79204;SDS011;68632;47.512;19.104;2023-04-06T04:01:04;23.55;;;15.10;;
79204;SDS011;68632;47.512;19.104;2023-04-06T04:02:06;22.23;;;14.32;;
79204;SDS011;68632;47.512;19.104;2023-04-06T04:03:08;24.67;;;16.95;;
79204;SDS011;68632;47.512;19.104;2023-04-06T04:04:10;24.60;;;13.13;;
79204;SDS011;68632;47.512;19.104;2023-04-06T04:05:12;22.08;;;15.43;;
79204;SDS011;68632;47.512;19.104;2023-04-06T04:06:15;25.60;;;17.30;;
79204;SDS011;68632;47.512;19.104;2023-04-06T04:07:17;23.33;;;15.05;;
79204;SDS011;68632;47.512;19.104;2023-04-06T04:08:19;21.95;;;15.18;;
79204;SDS011;68632;47.512;19.104;2023-04-06T04:09:21;22.52;;;15.13;;
79204;SDS011;68632;47.512;19.104;2023-04-06T04:10:23;24.83;;;15.65;;
79204;SDS011;68632;47.512;19.104;2023-04-06T04:11:26;27.15;;;16.88;;
79204;SDS011;68632;47.512;19.104;2023-04-06T04:12:28;23.15;;;14.82;;
79204;SDS011;68632;47.512;19.104;2023-04-06T04:13:30;26.40;;;15.63;;
79204;SDS011;68632;47.512;19.104;2023-04-06T04:14:32;28.10;;;16.98;;
79204;SDS011;68632;47.512;19.104;2023-04-06T04:15:34;23.75;;;14.45;;
79204;SDS011;68632;47.512;19.104;2023-04-06T04:16:36;26.70;;;15.85;;
79204;SDS011;68632;47.512;19.104;2023-04-06T04:17:38;23.17;;;14.52;;
79204;SDS011;68632;47.512;19.104;2023-04-06T04:18:41;25.60;;;14.65;;
79204;SDS011;68632;47.512;19.104;2023-04-06T04:19:45;24.65;;;14.25;;
79204;SDS011;68632;47.512;19.104;2023-04-06T04:20:47;21.65;;;14.43;;
79204;SDS011;68632;47.512;19.104;2023-04-06T04:21:49;22.73;;;14.63;;
79204;SDS011;68632;47.512;19.104;2023-04-06T04:22:51;26.80;;;15.18;;
79204;SDS011;68632;47.512;19.104;2023-04-06T04:23:53;29.45;;;15.55;;
79204;SDS011;68632;47.512;19.104;2023-04-06T04:24:56;26.80;;;15.20;;
79204;SDS011;68632;47.512;19.104;2023-04-06T04:25:58;25.83;;;16.35;;
79204;SDS011;68632;47.512;19.104;2023-04-06T04:27:00;26.55;;;14.15;;
79204;SDS011;68632;47.512;19.104;2023-04-06T04:28:06;23.63;;;15.43;;
79204;SDS011;68632;47.512;19.104;2023-04-06T04:29:09;24.17;;;15.00;;
79204;SDS011;68632;47.512;19.104;2023-04-06T04:30:11;23.23;;;15.15;;
79204;SDS011;68632;47.512;19.104;2023-04-06T04:31:14;22.48;;;15.88;;
79204;SDS011;68632;47.512;19.104;2023-04-06T04:32:16;24.70;;;14.35;;
79204;SDS011;68632;47.512;19.104;2023-04-06T04:33:18;27.58;;;15.43;;
79204;SDS011;68632;47.512;19.104;2023-04-06T04:34:20;24.17;;;15.02;;
79204;SDS011;68632;47.512;19.104;2023-04-06T04:35:26;23.35;;;14.10;;
79204;SDS011;68632;47.512;19.104;2023-04-06T04:36:28;23.73;;;14.48;;
79204;SDS011;68632;47.512;19.104;2023-04-06T04:37:30;22.48;;;15.07;;
79204;SDS011;68632;47.512;19.104;2023-04-06T04:38:33;25.38;;;15.85;;
79204;SDS011;68632;47.512;19.104;2023-04-06T04:39:35;25.92;;;15.65;;
79204;SDS011;68632;47.512;19.104;2023-04-06T04:40:37;26.17;;;15.52;;
79204;SDS011;68632;47.512;19.104;2023-04-06T04:41:39;24.63;;;15.35;;
79204;SDS011;68632;47.512;19.104;2023-04-06T04:42:41;26.20;;;15.73;;
79204;SDS011;68632;47.512;19.104;2023-04-06T04:43:44;27.52;;;16.15;;
79204;SDS011;68632;47.512;19.104;2023-04-06T04:44:46;28.83;;;17.40;;
79204;SDS011;68632;47.512;19.104;2023-04-06T04:45:48;28.15;;;15.43;;
79204;SDS011;68632;47.512;19.104;2023-04-06T04:46:50;24.13;;;16.65;;
79204;SDS011;68632;47.512;19.104;2023-04-06T04:47:52;22.27;;;15.15;;
79204;SDS011;68632;47.512;19.104;2023-04-06T04:48:54;29.55;;;15.77;;
79204;SDS011;68632;47.512;19.104;2023-04-06T04:49:57;23.63;;;15.07;;
79204;SDS011;68632;47.512;19.104;2023-04-06T04:50:59;26.40;;;15.15;;
79204;SDS011;68632;47.512;19.104;2023-04-06T04:52:01;27.52;;;15.40;;
79204;SDS011;68632;47.512;19.104;2023-04-06T04:53:04;27.05;;;15.70;;
79204;SDS011;68632;47.512;19.104;2023-04-06T04:54:08;22.80;;;13.95;;
79204;SDS011;68632;47.512;19.104;2023-04-06T04:55:10;24.42;;;14.75;;
79204;SDS011;68632;47.512;19.104;2023-04-06T04:56:13;26.92;;;16.38;;
79204;SDS011;68632;47.512;19.104;2023-04-06T04:57:15;27.13;;;15.88;;
79204;SDS011;68632;47.512;19.104;2023-04-06T04:58:17;28.73;;;16.40;;
79204;SDS011;68632;47.512;19.104;2023-04-06T04:59:21;22.60;;;15.13;;
79204;SDS011;68632;47.512;19.104;2023-04-06T05:00:23;27.58;;;16.20;;
79204;SDS011;68632;47.512;19.104;2023-04-06T05:01:25;25.55;;;14.85;;
79204;SDS011;68632;47.512;19.104;2023-04-06T05:02:27;25.20;;;15.13;;
79204;SDS011;68632;47.512;19.104;2023-04-06T05:03:30;32.15;;;19.08;;
79204;SDS011;68632;47.512;19.104;2023-04-06T05:04:33;23.98;;;13.70;;
79204;SDS011;68632;47.512;19.104;2023-04-06T05:05:35;21.98;;;14.02;;
79204;SDS011;68632;47.512;19.104;2023-04-06T05:06:37;29.08;;;15.70;;
79204;SDS011;68632;47.512;19.104;2023-04-06T05:07:40;22.98;;;13.50;;
79204;SDS011;68632;47.512;19.104;2023-04-06T05:08:42;23.88;;;14.35;;
79204;SDS011;68632;47.512;19.104;2023-04-06T05:09:44;19.85;;;12.52;;
79204;SDS011;68632;47.512;19.104;2023-04-06T05:10:47;25.17;;;14.02;;
79204;SDS011;68632;47.512;19.104;2023-04-06T05:11:50;17.27;;;11.63;;
79204;SDS011;68632;47.512;19.104;2023-04-06T05:12:52;23.02;;;12.75;;
79204;SDS011;68632;47.512;19.104;2023-04-06T05:13:54;22.25;;;13.40;;
79204;SDS011;68632;47.512;19.104;2023-04-06T05:14:56;19.40;;;11.60;;
79204;SDS011;68632;47.512;19.104;2023-04-06T05:16:00;22.25;;;12.10;;
79204;SDS011;68632;47.512;19.104;2023-04-06T05:17:02;23.42;;;13.10;;
79204;SDS011;68632;47.512;19.104;2023-04-06T05:18:04;19.50;;;12.73;;
79204;SDS011;68632;47.512;19.104;2023-04-06T05:19:07;18.13;;;12.23;;
79204;SDS011;68632;47.512;19.104;2023-04-06T05:20:10;20.55;;;13.52;;
79204;SDS011;68632;47.512;19.104;2023-04-06T05:21:12;19.33;;;12.73;;
79204;SDS011;68632;47.512;19.104;2023-04-06T05:22:15;20.42;;;13.95;;
79204;SDS011;68632;47.512;19.104;2023-04-06T05:23:19;21.17;;;13.20;;
79204;SDS011;68632;47.512;19.104;2023-04-06T05:24:21;22.40;;;13.90;;
79204;SDS011;68632;47.512;19.104;2023-04-06T05:25:23;22.27;;;14.60;;
79204;SDS011;68632;47.512;19.104;2023-04-06T05:26:26;19.60;;;12.13;;
79204;SDS011;68632;47.512;19.104;2023-04-06T05:27:28;21.58;;;13.77;;
79204;SDS011;68632;47.512;19.104;2023-04-06T05:28:30;19.92;;;13.00;;
79204;SDS011;68632;47.512;19.104;2023-04-06T05:29:33;20.08;;;11.75;;
79204;SDS011;68632;47.512;19.104;2023-04-06T05:30:35;21.98;;;12.65;;
79204;SDS011;68632;47.512;19.104;2023-04-06T05:31:37;26.20;;;14.15;;
79204;SDS011;68632;47.512;19.104;2023-04-06T05:32:39;18.65;;;12.48;;
79204;SDS011;68632;47.512;19.104;2023-04-06T05:33:42;24.08;;;14.02;;
79204;SDS011;68632;47.512;19.104;2023-04-06T05:34:44;23.70;;;13.73;;
79204;SDS011;68632;47.512;19.104;2023-04-06T05:35:46;22.98;;;13.07;;
79204;SDS011;68632;47.512;19.104;2023-04-06T05:36:48;16.08;;;11.30;;
79204;SDS011;68632;47.512;19.104;2023-04-06T05:37:50;21.67;;;14.25;;
79204;SDS011;68632;47.512;19.104;2023-04-06T05:38:52;21.35;;;13.52;;
79204;SDS011;68632;47.512;19.104;2023-04-06T05:39:54;22.52;;;13.32;;
79204;SDS011;68632;47.512;19.104;2023-04-06T05:40:57;21.55;;;12.45;;
79204;SDS011;68632;47.512;19.104;2023-04-06T05:42:02;17.35;;;11.82;;
79204;SDS011;68632;47.512;19.104;2023-04-06T05:43:06;19.48;;;14.30;;
79204;SDS011;68632;47.512;19.104;2023-04-06T05:44:09;17.88;;;12.02;;
79204;SDS011;68632;47.512;19.104;2023-04-06T05:45:11;21.38;;;13.32;;
79204;SDS011;68632;47.512;19.104;2023-04-06T05:46:18;19.35;;;12.07;;
79204;SDS011;68632;47.512;19.104;2023-04-06T05:47:21;18.27;;;12.60;;
79204;SDS011;68632;47.512;19.104;2023-04-06T05:48:23;21.70;;;12.27;;
79204;SDS011;68632;47.512;19.104;2023-04-06T05:49:25;21.60;;;11.88;;
79204;SDS011;68632;47.512;19.104;2023-04-06T05:50:28;19.83;;;12.45;;
79204;SDS011;68632;47.512;19.104;2023-04-06T05:51:30;21.80;;;11.65;;
79204;SDS011;68632;47.512;19.104;2023-04-06T05:52:32;19.45;;;12.13;;
79204;SDS011;68632;47.512;19.104;2023-04-06T05:53:35;18.63;;;12.60;;
79204;SDS011;68632;47.512;19.104;2023-04-06T05:54:37;20.55;;;12.35;;
79204;SDS011;68632;47.512;19.104;2023-04-06T05:55:39;20.15;;;12.00;;
79204;SDS011;68632;47.512;19.104;2023-04-06T05:56:41;21.63;;;12.50;;
79204;SDS011;68632;47.512;19.104;2023-04-06T05:57:43;18.92;;;12.00;;
79204;SDS011;68632;47.512;19.104;2023-04-06T05:58:45;18.77;;;12.88;;
79204;SDS011;68632;47.512;19.104;2023-04-06T05:59:47;20.20;;;12.98;;